createdAt,value
2022-09-18T00:05:55.654Z,91.00
2022-09-18T00:11:27.956Z,91.00
2022-09-18T00:27:52.357Z,91.10
2022-09-18T00:44:49.908Z,91.20
2022-09-18T00:50:23.891Z,91.10
2022-09-18T01:01:20.097Z,91.10
2022-09-18T01:07:22.414Z,91.20
2022-09-18T01:12:59.694Z,91.20
2022-09-18T01:18:55.061Z,91.20
2022-09-18T01:24:45.272Z,91.20
2022-09-18T01:30:13.828Z,91.10
2022-09-18T01:35:52.981Z,91.00
2022-09-18T01:41:26.857Z,91.10
2022-09-18T01:46:59.108Z,91.00
2022-09-18T01:52:43.729Z,91.10
2022-09-18T01:58:21.074Z,91.10
2022-09-18T02:03:55.912Z,91.20
2022-09-18T02:14:59.175Z,91.40
2022-09-18T02:26:09.848Z,91.70
2022-09-18T02:31:39.957Z,91.50
2022-09-18T02:37:11.442Z,91.60
2022-09-18T02:43:03.400Z,91.60
2022-09-18T02:49:15.061Z,91.60
2022-09-18T02:55:04.569Z,91.60
2022-09-18T03:00:32.857Z,91.70
2022-09-18T03:28:01.659Z,91.70
2022-09-18T03:33:41.800Z,91.60
2022-09-18T03:39:09.912Z,91.50
2022-09-18T03:44:39.151Z,91.50
2022-09-18T03:50:16.678Z,91.50
2022-09-18T03:55:44.602Z,91.50
2022-09-18T04:18:26.884Z,91.50
2022-09-18T04:23:59.937Z,91.60
2022-09-18T04:45:55.594Z,91.50
2022-09-18T04:56:51.581Z,91.40
2022-09-18T05:02:20.498Z,91.30
2022-09-18T05:13:18.597Z,91.20
2022-09-18T05:24:33.158Z,91.30
2022-09-18T05:30:01.399Z,91.30
2022-09-18T05:35:55.037Z,91.10
2022-09-18T05:41:22.883Z,91.10
2022-09-18T05:52:20.149Z,91.00
2022-09-18T05:57:53.864Z,91.10
2022-09-18T06:08:49.908Z,91.10
2022-09-18T06:14:20.607Z,91.00
2022-09-18T06:25:21.691Z,90.90
2022-09-18T06:30:49.618Z,91.00
2022-09-18T06:36:18.684Z,90.80
2022-09-18T06:47:48.869Z,90.80
2022-09-18T06:53:16.864Z,90.70
2022-09-18T07:04:23.385Z,90.60
2022-09-18T07:09:52.948Z,90.60
2022-09-18T07:15:35.558Z,90.70
2022-09-18T07:21:07.109Z,90.70
2022-09-18T07:32:10.687Z,90.70
2022-09-18T07:37:39.927Z,90.70
2022-09-18T07:43:18.735Z,90.80
2022-09-18T07:48:52.674Z,91.00
2022-09-18T07:54:27.696Z,90.90
2022-09-18T08:00:01.267Z,91.00
2022-09-18T08:05:36.958Z,91.00
2022-09-18T08:11:04.917Z,91.10
2022-09-18T08:16:56.222Z,91.10
2022-09-18T08:22:42.405Z,91.10
2022-09-18T08:28:10.968Z,91.20
2022-09-18T08:39:16.079Z,91.40
2022-09-18T08:54:16.959Z,91.30
2022-09-18T09:00:23.576Z,91.60
2022-09-18T09:06:15.579Z,91.70
2022-09-18T09:12:25.268Z,91.70
2022-09-18T09:18:19.370Z,91.70
2022-09-18T09:24:21.225Z,91.50
2022-09-18T09:30:20.795Z,91.40
2022-09-18T09:36:16.376Z,91.30
2022-09-18T09:42:33.639Z,91.40
2022-09-18T09:48:22.617Z,91.00
2022-09-18T09:53:55.889Z,90.80
2022-09-18T09:59:38.963Z,90.70
2022-09-18T10:05:44.598Z,90.50
2022-09-18T10:11:14.427Z,89.70
2022-09-18T10:16:50.164Z,89.20
2022-09-18T10:22:23.239Z,89.10
2022-09-18T10:27:51.265Z,88.90
2022-09-18T10:33:45.922Z,88.90
2022-09-18T10:39:36.584Z,88.70
2022-09-18T10:45:24.628Z,88.70
2022-09-18T10:51:00.735Z,88.40
2022-09-18T10:56:40.399Z,88.10
2022-09-18T11:02:20.365Z,88.10
2022-09-18T11:07:51.329Z,87.90
2022-09-18T11:13:24.991Z,87.40
2022-09-18T11:19:12.668Z,87.30
2022-09-18T11:24:47.303Z,87.50
2022-09-18T11:30:31.651Z,87.50
2022-09-18T11:36:06.847Z,87.80
2022-09-18T11:41:39.107Z,87.80
2022-09-18T11:47:20.087Z,87.70
2022-09-18T11:53:03.572Z,87.70
2022-09-18T11:58:35.182Z,87.60
2022-09-18T12:04:33.387Z,87.80
2022-09-18T12:10:10.675Z,87.80
2022-09-18T12:15:41.826Z,87.50
2022-09-18T12:21:17.644Z,87.70
2022-09-18T12:27:00.821Z,88.00
2022-09-18T12:33:02.950Z,87.80
2022-09-18T12:39:18.530Z,88.50
2022-09-18T12:45:06.395Z,88.60
2022-09-18T12:51:03.381Z,88.90
2022-09-18T12:56:52.647Z,88.80
2022-09-18T13:03:06.711Z,88.70
2022-09-18T13:08:54.885Z,88.60
2022-09-18T13:14:37.814Z,88.30
2022-09-18T13:20:28.386Z,88.40
2022-09-18T13:25:58.809Z,88.20
2022-09-18T13:31:35.099Z,87.20
2022-09-18T13:37:07.569Z,87.80
2022-09-18T13:42:40.601Z,87.40
2022-09-18T13:48:24.944Z,86.90
2022-09-18T13:54:11.382Z,86.80
2022-09-18T13:59:48.242Z,86.80
2022-09-18T14:05:34.433Z,85.60
2022-09-18T14:11:17.623Z,84.50
2022-09-18T14:16:46.161Z,84.20
2022-09-18T14:22:38.115Z,83.90
2022-09-18T14:28:06.378Z,83.30
2022-09-18T14:33:35.394Z,83.30
2022-09-18T14:39:03.248Z,83.40
2022-09-18T14:44:32.951Z,83.30
2022-09-18T14:50:00.800Z,82.90
2022-09-18T14:55:41.847Z,82.70
2022-09-18T15:01:21.257Z,82.50
2022-09-18T15:06:53.572Z,82.10
2022-09-18T15:12:26.224Z,81.90
2022-09-18T15:17:55.199Z,81.90
2022-09-18T15:23:39.369Z,81.70
2022-09-18T15:29:26.916Z,81.40
2022-09-18T15:34:55.305Z,81.30
2022-09-18T15:40:31.919Z,81.00
2022-09-18T15:46:13.450Z,80.90
2022-09-18T15:51:41.288Z,80.80
2022-09-18T15:57:15.859Z,80.50
2022-09-18T16:02:43.853Z,80.40
2022-09-18T16:08:22.005Z,79.60
2022-09-18T16:13:53.325Z,80.10
2022-09-18T16:19:21.236Z,79.60
2022-09-18T16:24:49.747Z,79.50
2022-09-18T16:30:17.746Z,80.10
2022-09-18T16:35:46.792Z,80.10
2022-09-18T16:41:14.762Z,79.70
2022-09-18T16:46:48.942Z,79.70
2022-09-18T16:52:16.849Z,79.80
2022-09-18T16:57:44.763Z,80.60
2022-09-18T17:03:15.746Z,80.70
2022-09-18T17:08:46.817Z,80.70
2022-09-18T17:14:15.828Z,80.80
2022-09-18T17:19:44.317Z,80.90
2022-09-18T17:25:14.464Z,80.90
2022-09-18T17:30:43.935Z,81.10
2022-09-18T17:36:16.641Z,81.20
2022-09-18T17:41:46.652Z,80.80
2022-09-18T17:47:15.765Z,81.40
2022-09-18T17:52:44.831Z,80.90
2022-09-18T17:58:15.181Z,81.50
2022-09-18T18:03:45.344Z,81.10
2022-09-18T18:09:17.523Z,81.30
2022-09-18T18:14:47.030Z,81.90
2022-09-18T18:20:17.929Z,82.00
2022-09-18T18:25:47.752Z,81.50
2022-09-18T18:31:17.651Z,82.00
2022-09-18T18:36:53.670Z,82.10
2022-09-18T18:42:23.310Z,81.50
2022-09-18T18:47:53.165Z,82.00
2022-09-18T18:53:22.532Z,82.00
2022-09-18T18:59:01.348Z,82.00
2022-09-18T19:04:33.641Z,81.90
2022-09-18T19:10:03.045Z,81.00
2022-09-18T19:15:35.548Z,81.50
2022-09-18T19:21:10.744Z,81.30
2022-09-18T19:26:45.983Z,80.50
2022-09-18T19:32:24.406Z,80.40
2022-09-18T19:37:57.542Z,81.10
2022-09-18T19:43:35.973Z,80.20
2022-09-18T19:49:05.557Z,80.30
2022-09-18T19:54:35.161Z,79.40
2022-09-18T20:00:06.030Z,79.90
2022-09-18T20:05:43.744Z,79.60
2022-09-18T20:11:16.082Z,78.50
2022-09-18T20:16:45.348Z,78.20
2022-09-18T20:22:17.184Z,78.70
2022-09-18T20:27:53.157Z,77.90
2022-09-18T20:33:24.162Z,78.50
2022-09-18T20:38:58.055Z,77.80
2022-09-18T20:44:27.032Z,77.40
2022-09-18T20:49:54.961Z,77.40
2022-09-18T20:55:24.196Z,78.00
2022-09-18T21:00:53.739Z,78.00
2022-09-18T21:06:23.710Z,76.90
2022-09-18T21:11:52.572Z,77.00
2022-09-18T21:17:21.192Z,76.70
2022-09-18T21:23:08.461Z,76.80
2022-09-18T21:28:37.052Z,77.40
2022-09-18T21:34:05.710Z,76.50
2022-09-18T21:39:34.956Z,76.40
2022-09-18T21:50:49.265Z,76.30
2022-09-18T21:56:20.469Z,77.30
2022-09-18T22:01:53.004Z,76.90
2022-09-18T22:07:21.409Z,77.20
2022-09-18T22:12:49.450Z,77.20
2022-09-18T22:18:17.261Z,77.00
2022-09-18T22:23:45.301Z,77.60
2022-09-18T22:29:23.857Z,79.20
2022-09-18T22:34:53.425Z,79.70
2022-09-18T22:40:21.310Z,80.70
2022-09-18T22:45:49.067Z,81.20
2022-09-18T22:51:20.622Z,81.80
2022-09-18T22:56:52.296Z,82.30
2022-09-18T23:02:20.941Z,82.40
2022-09-18T23:07:49.088Z,83.40
2022-09-18T23:13:16.889Z,83.50
2022-09-18T23:18:58.034Z,84.30
2022-09-18T23:24:26.818Z,84.60
2022-09-18T23:29:54.537Z,85.10
2022-09-18T23:35:22.771Z,85.60
2022-09-18T23:40:50.476Z,86.00
2022-09-18T23:46:19.412Z,86.50
2022-09-18T23:51:47.285Z,86.20
2022-09-18T23:57:15.042Z,87.50
